Bowling Green, South Carolina
Current Conditions -  °F | °C
As of 4:54 AM on Tuesday 27 Jan 2015 (Local Time) from KAKH Reporting Station
Clear Clear  
Wind Chill: 29°   Ceiling: Unl
Heat Index: 29°   Visibility: 10mi
Dew Point: 18°   Wind: 0mph
Humidity: 64%   Direction: NA
Pressure: 29.78"   Gusts: NA
Location:  35.15°N, 81.21°W
Report Text: KAKH 270954Z AUTO 00000KT 10SM CLR M02/M08 A2978 RMK AO2 SLP087 T10171078
Loading
Personal Weather Stations






























Interactive Weather Map New forecast layout! Learn more

10-Day Weather Forecast

Advertisements
Track Severe Weather on mobile